<?xml version="1.0" encoding="UTF-8" standalone="no" ?><gpx xmlns="http://www.topografix.com/GPX/1/1" xmlns:gpxx="http://www.garmin.com/xmlschemas/GpxExtensions/v3" xmlns:wptx1="http://www.garmin.com/xmlschemas/WaypointExtension/v1" xmlns:gpxtpx="http://www.garmin.com/xmlschemas/TrackPointExtension/v1" creator="GuideVTT.com" version="1.1" xmlns:xsi="http://www.w3.org/2001/XMLSchema-instance" xsi:schemaLocation="http://www.topografix.com/GPX/1/1 http://www.topografix.com/GPX/1/1/gpx.xsd http://www.garmin.com/xmlschemas/GpxExtensions/v3 http://www8.garmin.com/xmlschemas/GpxExtensionsv3.xsd http://www.garmin.com/xmlschemas/WaypointExtension/v1 http://www8.garmin.com/xmlschemas/WaypointExtensionv1.xsd http://www.garmin.com/xmlschemas/TrackPointExtension/v1 http://www.garmin.com/xmlschemas/TrackPointExtensionv1.xsd">
<metadata><link href="http://www.garmin.com"><text>Garmin International</text></link><time>2013-06-22T15:13:50Z</time></metadata>
<trk><name>rp_2014_18.gpx</name><extensions><gpxx:TrackExtension><gpxx:DisplayColor>Cyan</gpxx:DisplayColor></gpxx:TrackExtension></extensions><trkseg>
<trkpt lat="46.2066565175" lon="7.4396532029"><ele></ele><time>2014-7-5T0:15:18Z</time></trkpt>
<trkpt lat="46.2066752929" lon="7.4397148937"><ele></ele><time>2014-7-5T0:15:21Z</time></trkpt>
<trkpt lat="46.2066193018" lon="7.4396829586"><ele></ele><time>2014-7-5T0:15:24Z</time></trkpt>
<trkpt lat="46.2065769732" lon="7.4396605790"><ele></ele><time>2014-7-5T0:15:27Z</time></trkpt>
<trkpt lat="46.2065054756" lon="7.4396304041"><ele></ele><time>2014-7-5T0:15:30Z</time></trkpt>
<trkpt lat="46.2064404320" lon="7.4395926856"><ele></ele><time>2014-7-5T0:15:33Z</time></trkpt>
<trkpt lat="46.2063898053" lon="7.4395605829"><ele></ele><time>2014-7-5T0:15:36Z</time></trkpt>
<trkpt lat="46.2063261867" lon="7.4395379517"><ele></ele><time>2014-7-5T0:15:39Z</time></trkpt>
<trkpt lat="46.2062974367" lon="7.4395441543"><ele></ele><time>2014-7-5T0:15:42Z</time></trkpt>
<trkpt lat="46.2062494922" lon="7.4395858124"><ele></ele><time>2014-7-5T0:15:45Z</time></trkpt>
<trkpt lat="46.2062513363" lon="7.4396048393"><ele></ele><time>2014-7-5T0:15:48Z</time></trkpt>
<trkpt lat="46.2063569482" lon="7.4397432245"><ele></ele><time>2014-7-5T0:15:51Z</time></trkpt>
<trkpt lat="46.2065046374" lon="7.4400361720"><ele></ele><time>2014-7-5T0:15:54Z</time></trkpt>
<trkpt lat="46.2067730259" lon="7.4403644074"><ele></ele><time>2014-7-5T0:15:57Z</time></trkpt>
<trkpt lat="46.2072796281" lon="7.4406400044"><ele></ele><time>2014-7-5T0:16:0Z</time></trkpt>
<trkpt lat="46.2079007272" lon="7.4407401681"><ele></ele><time>2014-7-5T0:16:3Z</time></trkpt>
<trkpt lat="46.2086347304" lon="7.4404162914"><ele></ele><time>2014-7-5T0:16:6Z</time></trkpt>
<trkpt lat="46.2088830862" lon="7.4402905628"><ele></ele><time>2014-7-5T0:16:9Z</time></trkpt>
<trkpt lat="46.2091754470" lon="7.4403655808"><ele></ele><time>2014-7-5T0:16:12Z</time></trkpt>
<trkpt lat="46.2096495274" lon="7.4402955081"><ele></ele><time>2014-7-5T0:16:15Z</time></trkpt>
<trkpt lat="46.2097453326" lon="7.4402058218"><ele></ele><time>2014-7-5T0:16:18Z</time></trkpt>
<trkpt lat="46.2102288846" lon="7.4397209287"><ele></ele><time>2014-7-5T0:16:21Z</time></trkpt>
<trkpt lat="46.2104691099" lon="7.4393460061"><ele></ele><time>2014-7-5T0:16:24Z</time></trkpt>
<trkpt lat="46.2108181324" lon="7.4389533978"><ele></ele><time>2014-7-5T0:16:27Z</time></trkpt>
<trkpt lat="46.2111304421" lon="7.4387501366"><ele></ele><time>2014-7-5T0:16:30Z</time></trkpt>
<trkpt lat="46.2114938814" lon="7.4383504875"><ele></ele><time>2014-7-5T0:16:33Z</time></trkpt>
<trkpt lat="46.2118934467" lon="7.4376514368"><ele></ele><time>2014-7-5T0:16:36Z</time></trkpt>
<trkpt lat="46.2120947801" lon="7.4373621773"><ele></ele><time>2014-7-5T0:16:39Z</time></trkpt>
<trkpt lat="46.2122069299" lon="7.4371662922"><ele></ele><time>2014-7-5T0:16:42Z</time></trkpt>
<trkpt lat="46.2125182338" lon="7.4368017633"><ele></ele><time>2014-7-5T0:16:45Z</time></trkpt>
<trkpt lat="46.2127401866" lon="7.4365793075"><ele></ele><time>2014-7-5T0:16:48Z</time></trkpt>
<trkpt lat="46.2129300367" lon="7.4363923911"><ele></ele><time>2014-7-5T0:16:51Z</time></trkpt>
<trkpt lat="46.2131391652" lon="7.4362825043"><ele></ele><time>2014-7-5T0:16:54Z</time></trkpt>
<trkpt lat="46.2131498940" lon="7.4365040381"><ele></ele><time>2014-7-5T0:16:57Z</time></trkpt>
<trkpt lat="46.2128816731" lon="7.4367889389"><ele></ele><time>2014-7-5T0:17:0Z</time></trkpt>
<trkpt lat="46.2126762327" lon="7.4372138176"><ele></ele><time>2014-7-5T0:17:3Z</time></trkpt>
<trkpt lat="46.2125058286" lon="7.4375555478"><ele></ele><time>2014-7-5T0:17:6Z</time></trkpt>
<trkpt lat="46.2122827023" lon="7.4378816877"><ele></ele><time>2014-7-5T0:17:9Z</time></trkpt>
<trkpt lat="46.2120581511" lon="7.4381745514"><ele></ele><time>2014-7-5T0:17:12Z</time></trkpt>
<trkpt lat="46.2118727434" lon="7.4385312013"><ele></ele><time>2014-7-5T0:17:15Z</time></trkpt>
<trkpt lat="46.2116856594" lon="7.4389114883"><ele></ele><time>2014-7-5T0:17:18Z</time></trkpt>
<trkpt lat="46.2114809733" lon="7.4392761011"><ele></ele><time>2014-7-5T0:17:21Z</time></trkpt>
<trkpt lat="46.2112436816" lon="7.4394862354"><ele></ele><time>2014-7-5T0:17:24Z</time></trkpt>
<trkpt lat="46.2110117543" lon="7.4397481699"><ele></ele><time>2014-7-5T0:17:27Z</time></trkpt>
<trkpt lat="46.2107202318" lon="7.4400795065"><ele></ele><time>2014-7-5T0:17:30Z</time></trkpt>
<trkpt lat="46.2104570400" lon="7.4404021259"><ele></ele><time>2014-7-5T0:17:33Z</time></trkpt>
<trkpt lat="46.2101886515" lon="7.4407176208"><ele></ele><time>2014-7-5T0:17:36Z</time></trkpt>
<trkpt lat="46.2099228613" lon="7.4409501348"><ele></ele><time>2014-7-5T0:17:39Z</time></trkpt>
<trkpt lat="46.2096582446" lon="7.4410905316"><ele></ele><time>2014-7-5T0:17:42Z</time></trkpt>
<trkpt lat="46.2093712483" lon="7.4411833193"><ele></ele><time>2014-7-5T0:17:45Z</time></trkpt>
<trkpt lat="46.2090890296" lon="7.4412301742"><ele></ele><time>2014-7-5T0:17:48Z</time></trkpt>
<trkpt lat="46.2088115886" lon="7.4412925355"><ele></ele><time>2014-7-5T0:17:51Z</time></trkpt>
<trkpt lat="46.2085528392" lon="7.4413724151"><ele></ele><time>2014-7-5T0:17:54Z</time></trkpt>
<trkpt lat="46.2082786672" lon="7.4414544739"><ele></ele><time>2014-7-5T0:17:57Z</time></trkpt>
<trkpt lat="46.2080179900" lon="7.4415393826"><ele></ele><time>2014-7-5T0:18:0Z</time></trkpt>
<trkpt lat="46.2077324186" lon="7.4416059349"><ele></ele><time>2014-7-5T0:18:3Z</time></trkpt>
<trkpt lat="46.2075076159" lon="7.4415945355"><ele></ele><time>2014-7-5T0:18:6Z</time></trkpt>
<trkpt lat="46.2073076237" lon="7.4415161647"><ele></ele><time>2014-7-5T0:18:9Z</time></trkpt>
<trkpt lat="46.2070715055" lon="7.4414142407"><ele></ele><time>2014-7-5T0:18:12Z</time></trkpt>
<trkpt lat="46.2067851797" lon="7.4411813915"><ele></ele><time>2014-7-5T0:18:15Z</time></trkpt>
<trkpt lat="46.2065339740" lon="7.4409595225"><ele></ele><time>2014-7-5T0:18:18Z</time></trkpt>
<trkpt lat="46.2062265258" lon="7.4406959955"><ele></ele><time>2014-7-5T0:18:21Z</time></trkpt>
<trkpt lat="46.2059494201" lon="7.4404724501"><ele></ele><time>2014-7-5T0:18:24Z</time></trkpt>
<trkpt lat="46.2056727335" lon="7.4403060693"><ele></ele><time>2014-7-5T0:18:27Z</time></trkpt>
<trkpt lat="46.2053469289" lon="7.4401121959"><ele></ele><time>2014-7-5T0:18:30Z</time></trkpt>
<trkpt lat="46.2050660513" lon="7.4399326555"><ele></ele><time>2014-7-5T0:18:33Z</time></trkpt>
<trkpt lat="46.2047415040" lon="7.4397599045"><ele></ele><time>2014-7-5T0:18:36Z</time></trkpt>
<trkpt lat="46.2044405937" lon="7.4396188371"><ele></ele><time>2014-7-5T0:18:39Z</time></trkpt>
<trkpt lat="46.2044223212" lon="7.4396256264"><ele></ele><time>2014-7-5T0:18:42Z</time></trkpt>
<trkpt lat="46.2044353131" lon="7.4398167338"><ele></ele><time>2014-7-5T0:18:45Z</time></trkpt>
<trkpt lat="46.2044703495" lon="7.4398565479"><ele></ele><time>2014-7-5T0:18:48Z</time></trkpt>
<trkpt lat="46.2046736106" lon="7.4400950130"><ele></ele><time>2014-7-5T0:18:51Z</time></trkpt>
<trkpt lat="46.2048675679" lon="7.4402859528"><ele></ele><time>2014-7-5T0:18:54Z</time></trkpt>
<trkpt lat="46.2050906941" lon="7.4405376613"><ele></ele><time>2014-7-5T0:18:57Z</time></trkpt>
<trkpt lat="46.2052958831" lon="7.4407427665"><ele></ele><time>2014-7-5T0:19:0Z</time></trkpt>
<trkpt lat="46.2054903433" lon="7.4409570917"><ele></ele><time>2014-7-5T0:19:3Z</time></trkpt>
<trkpt lat="46.2056378648" lon="7.4412202835"><ele></ele><time>2014-7-5T0:19:6Z</time></trkpt>
<trkpt lat="46.2057347596" lon="7.4414767697"><ele></ele><time>2014-7-5T0:19:9Z</time></trkpt>
<trkpt lat="46.2057765853" lon="7.4417665321"><ele></ele><time>2014-7-5T0:19:12Z</time></trkpt>
<trkpt lat="46.2058268767" lon="7.4421220925"><ele></ele><time>2014-7-5T0:19:15Z</time></trkpt>
<trkpt lat="46.2058478314" lon="7.4425453786"><ele></ele><time>2014-7-5T0:19:18Z</time></trkpt>
<trkpt lat="46.2059474085" lon="7.4428632203"><ele></ele><time>2014-7-5T0:19:21Z</time></trkpt>
<trkpt lat="46.2060946785" lon="7.4431435112"><ele></ele><time>2014-7-5T0:19:24Z</time></trkpt>
<trkpt lat="46.2062706985" lon="7.4434269872"><ele></ele><time>2014-7-5T0:19:27Z</time></trkpt>
<trkpt lat="46.2064580340" lon="7.4436026718"><ele></ele><time>2014-7-5T0:19:30Z</time></trkpt>
<trkpt lat="46.2066522427" lon="7.4437713996"><ele></ele><time>2014-7-5T0:19:33Z</time></trkpt>
<trkpt lat="46.2068818230" lon="7.4439927656"><ele></ele><time>2014-7-5T0:19:36Z</time></trkpt>
<trkpt lat="46.2070719246" lon="7.4442163110"><ele></ele><time>2014-7-5T0:19:39Z</time></trkpt>
<trkpt lat="46.2072160933" lon="7.4444940034"><ele></ele><time>2014-7-5T0:19:42Z</time></trkpt>
<trkpt lat="46.2073828932" lon="7.4447404314"><ele></ele><time>2014-7-5T0:19:45Z</time></trkpt>
<trkpt lat="46.2073814683" lon="7.4447774794"><ele></ele><time>2014-7-5T0:19:48Z</time></trkpt>
<trkpt lat="46.2073324341" lon="7.4447727855"><ele></ele><time>2014-7-5T0:19:51Z</time></trkpt>
<trkpt lat="46.2072669715" lon="7.4447672535"><ele></ele><time>2014-7-5T0:19:54Z</time></trkpt>
<trkpt lat="46.2072207872" lon="7.4447122682"><ele></ele><time>2014-7-5T0:19:57Z</time></trkpt>
<trkpt lat="46.2071088050" lon="7.4445555266"><ele></ele><time>2014-7-5T0:20:0Z</time></trkpt>
<trkpt lat="46.2069695815" lon="7.4444607273"><ele></ele><time>2014-7-5T0:20:3Z</time></trkpt>
<trkpt lat="46.2067711819" lon="7.4444156326"><ele></ele><time>2014-7-5T0:20:6Z</time></trkpt>
<trkpt lat="46.2065681722" lon="7.4444382638"><ele></ele><time>2014-7-5T0:20:9Z</time></trkpt>
<trkpt lat="46.2063836027" lon="7.4444375094"><ele></ele><time>2014-7-5T0:20:12Z</time></trkpt>
<trkpt lat="46.2061677687" lon="7.4444629066"><ele></ele><time>2014-7-5T0:20:15Z</time></trkpt>
<trkpt lat="46.2059666030" lon="7.4445095938"><ele></ele><time>2014-7-5T0:20:18Z</time></trkpt>
<trkpt lat="46.2057457399" lon="7.4445586279"><ele></ele><time>2014-7-5T0:20:21Z</time></trkpt>
<trkpt lat="46.2056632619" lon="7.4445643276"><ele></ele><time>2014-7-5T0:20:24Z</time></trkpt>
<trkpt lat="46.2055791914" lon="7.4445768166"><ele></ele><time>2014-7-5T0:20:27Z</time></trkpt>
<trkpt lat="46.2053622678" lon="7.4445800018"><ele></ele><time>2014-7-5T0:20:30Z</time></trkpt>
<trkpt lat="46.2053187657" lon="7.4445810076"><ele></ele><time>2014-7-5T0:20:33Z</time></trkpt>
<trkpt lat="46.2051324360" lon="7.4444593862"><ele></ele><time>2014-7-5T0:20:36Z</time></trkpt>
<trkpt lat="46.2049527280" lon="7.4443331547"><ele></ele><time>2014-7-5T0:20:39Z</time></trkpt>
<trkpt lat="46.2047037855" lon="7.4442569632"><ele></ele><time>2014-7-5T0:20:42Z</time></trkpt>
<trkpt lat="46.2045313697" lon="7.4441204220"><ele></ele><time>2014-7-5T0:20:45Z</time></trkpt>
<trkpt lat="46.2043744605" lon="7.4439297337"><ele></ele><time>2014-7-5T0:20:48Z</time></trkpt>
<trkpt lat="46.2042465527" lon="7.4436607584"><ele></ele><time>2014-7-5T0:20:51Z</time></trkpt>
<trkpt lat="46.2040895596" lon="7.4434258137"><ele></ele><time>2014-7-5T0:20:54Z</time></trkpt>
<trkpt lat="46.2039377633" lon="7.4432518054"><ele></ele><time>2014-7-5T0:20:57Z</time></trkpt>
<trkpt lat="46.2037376035" lon="7.4430601951"><ele></ele><time>2014-7-5T0:21:0Z</time></trkpt>
<trkpt lat="46.2035237812" lon="7.4429323711"><ele></ele><time>2014-7-5T0:21:3Z</time></trkpt>
<trkpt lat="46.2033913471" lon="7.4427474663"><ele></ele><time>2014-7-5T0:21:6Z</time></trkpt>
<trkpt lat="46.2032549735" lon="7.4425492343"><ele></ele><time>2014-7-5T0:21:9Z</time></trkpt>
<trkpt lat="46.2030575797" lon="7.4424403533"><ele></ele><time>2014-7-5T0:21:12Z</time></trkpt>
<trkpt lat="46.2029122375" lon="7.4422964361"><ele></ele><time>2014-7-5T0:21:15Z</time></trkpt>
<trkpt lat="46.2027157657" lon="7.4420815241"><ele></ele><time>2014-7-5T0:21:18Z</time></trkpt>
<trkpt lat="46.2025618739" lon="7.4419836234"><ele></ele><time>2014-7-5T0:21:21Z</time></trkpt>
<trkpt lat="46.2024322897" lon="7.4420559593"><ele></ele><time>2014-7-5T0:21:24Z</time></trkpt>
<trkpt lat="46.2022278551" lon="7.4422931671"><ele></ele><time>2014-7-5T0:21:27Z</time></trkpt>
<trkpt lat="46.2020121049" lon="7.4423505832"><ele></ele><time>2014-7-5T0:21:30Z</time></trkpt>
<trkpt lat="46.2018384319" lon="7.4424134474"><ele></ele><time>2014-7-5T0:21:33Z</time></trkpt>
<trkpt lat="46.2017193250" lon="7.4424913153"><ele></ele><time>2014-7-5T0:21:36Z</time></trkpt>
<trkpt lat="46.2016497552" lon="7.4426159542"><ele></ele><time>2014-7-5T0:21:39Z</time></trkpt>
<trkpt lat="46.2015980389" lon="7.4427137710"><ele></ele><time>2014-7-5T0:21:42Z</time></trkpt>
<trkpt lat="46.2014853023" lon="7.4429787230"><ele></ele><time>2014-7-5T0:21:45Z</time></trkpt>
<trkpt lat="46.2013678718" lon="7.4432359636"><ele></ele><time>2014-7-5T0:21:48Z</time></trkpt>
<trkpt lat="46.2012433168" lon="7.4435046874"><ele></ele><time>2014-7-5T0:21:51Z</time></trkpt>
<trkpt lat="46.2011544686" lon="7.4437166657"><ele></ele><time>2014-7-5T0:21:54Z</time></trkpt>
<trkpt lat="46.2010773551" lon="7.4439680390"><ele></ele><time>2014-7-5T0:21:57Z</time></trkpt>
<trkpt lat="46.2010650337" lon="7.4442385230"><ele></ele><time>2014-7-5T0:22:0Z</time></trkpt>
<trkpt lat="46.2010372058" lon="7.4445023853"><ele></ele><time>2014-7-5T0:22:3Z</time></trkpt>
<trkpt lat="46.2009161711" lon="7.4446992762"><ele></ele><time>2014-7-5T0:22:6Z</time></trkpt>
<trkpt lat="46.2008509599" lon="7.4447642360"><ele></ele><time>2014-7-5T0:22:9Z</time></trkpt>
<trkpt lat="46.2007490359" lon="7.4448773917"><ele></ele><time>2014-7-5T0:22:12Z</time></trkpt>
<trkpt lat="46.2006283365" lon="7.4450599495"><ele></ele><time>2014-7-5T0:22:15Z</time></trkpt>
<trkpt lat="46.2005631253" lon="7.4451806489"><ele></ele><time>2014-7-5T0:22:18Z</time></trkpt>
<trkpt lat="46.2004701700" lon="7.4454073794"><ele></ele><time>2014-7-5T0:22:21Z</time></trkpt>
<trkpt lat="46.2004046235" lon="7.4456763547"><ele></ele><time>2014-7-5T0:22:24Z</time></trkpt>
<trkpt lat="46.2003819924" lon="7.4458180927"><ele></ele><time>2014-7-5T0:22:27Z</time></trkpt>
<trkpt lat="46.2003651448" lon="7.4460914265"><ele></ele><time>2014-7-5T0:22:30Z</time></trkpt>
<trkpt lat="46.2003654800" lon="7.4463443924"><ele></ele><time>2014-7-5T0:22:33Z</time></trkpt>
<trkpt lat="46.2003320362" lon="7.4465653393"><ele></ele><time>2014-7-5T0:22:36Z</time></trkpt>
<trkpt lat="46.2003025319" lon="7.4467290379"><ele></ele><time>2014-7-5T0:22:39Z</time></trkpt>
<trkpt lat="46.2002662383" lon="7.4468768947"><ele></ele><time>2014-7-5T0:22:42Z</time></trkpt>
<trkpt lat="46.2002340518" lon="7.4470362347"><ele></ele><time>2014-7-5T0:22:45Z</time></trkpt>
<trkpt lat="46.2001490593" lon="7.4472856801"><ele></ele><time>2014-7-5T0:22:48Z</time></trkpt>
<trkpt lat="46.2000771426" lon="7.4474930484"><ele></ele><time>2014-7-5T0:22:51Z</time></trkpt>
<trkpt lat="46.2000200618" lon="7.4476998299"><ele></ele><time>2014-7-5T0:22:54Z</time></trkpt>
<trkpt lat="46.2000276055" lon="7.4479463417"><ele></ele><time>2014-7-5T0:22:57Z</time></trkpt>
<trkpt lat="46.2001043838" lon="7.4481579848"><ele></ele><time>2014-7-5T0:23:0Z</time></trkpt>
<trkpt lat="46.2001671642" lon="7.4483797699"><ele></ele><time>2014-7-5T0:23:3Z</time></trkpt>
<trkpt lat="46.2001977582" lon="7.4485013913"><ele></ele><time>2014-7-5T0:23:6Z</time></trkpt>
<trkpt lat="46.2002539169" lon="7.4486929178"><ele></ele><time>2014-7-5T0:23:9Z</time></trkpt>
<trkpt lat="46.2002581917" lon="7.4489525054"><ele></ele><time>2014-7-5T0:23:12Z</time></trkpt>
<trkpt lat="46.2002519052" lon="7.4489742983"><ele></ele><time>2014-7-5T0:23:15Z</time></trkpt>
<trkpt lat="46.2002001889" lon="7.4492436927"><ele></ele><time>2014-7-5T0:23:18Z</time></trkpt>
<trkpt lat="46.2001954950" lon="7.4492902122"><ele></ele><time>2014-7-5T0:23:21Z</time></trkpt>
<trkpt lat="46.2001602910" lon="7.4494355544"><ele></ele><time>2014-7-5T0:23:24Z</time></trkpt>
<trkpt lat="46.2000374962" lon="7.4496927951"><ele></ele><time>2014-7-5T0:23:27Z</time></trkpt>
<trkpt lat="46.2000101712" lon="7.4498320185"><ele></ele><time>2014-7-5T0:23:30Z</time></trkpt>
<trkpt lat="46.2001323793" lon="7.4497950543"><ele></ele><time>2014-7-5T0:23:33Z</time></trkpt>
<trkpt lat="46.2002299447" lon="7.4496335350"><ele></ele><time>2014-7-5T0:23:36Z</time></trkpt>
<trkpt lat="46.2004121672" lon="7.4493543338"><ele></ele><time>2014-7-5T0:23:39Z</time></trkpt>
<trkpt lat="46.2005591020" lon="7.4491622206"><ele></ele><time>2014-7-5T0:23:42Z</time></trkpt>
<trkpt lat="46.2006280012" lon="7.4489843566"><ele></ele><time>2014-7-5T0:23:45Z</time></trkpt>
<trkpt lat="46.2007492036" lon="7.4487705342"><ele></ele><time>2014-7-5T0:23:48Z</time></trkpt>
<trkpt lat="46.2008189410" lon="7.4485628307"><ele></ele><time>2014-7-5T0:23:51Z</time></trkpt>
<trkpt lat="46.2009032629" lon="7.4482529517"><ele></ele><time>2014-7-5T0:23:54Z</time></trkpt>
<trkpt lat="46.2009305879" lon="7.4480984733"><ele></ele><time>2014-7-5T0:23:57Z</time></trkpt>
<trkpt lat="46.2011724059" lon="7.4479972199"><ele></ele><time>2014-7-5T0:24:0Z</time></trkpt>
<trkpt lat="46.2013866473" lon="7.4479757622"><ele></ele><time>2014-7-5T0:24:3Z</time></trkpt>
<trkpt lat="46.2015710492" lon="7.4478369579"><ele></ele><time>2014-7-5T0:24:6Z</time></trkpt>
<trkpt lat="46.2018395215" lon="7.4477080442"><ele></ele><time>2014-7-5T0:24:9Z</time></trkpt>
<trkpt lat="46.2020172179" lon="7.4475948885"><ele></ele><time>2014-7-5T0:24:12Z</time></trkpt>
<trkpt lat="46.2022224069" lon="7.4475050345"><ele></ele><time>2014-7-5T0:24:15Z</time></trkpt>
<trkpt lat="46.2024471257" lon="7.4474961497"><ele></ele><time>2014-7-5T0:24:18Z</time></trkpt>
<trkpt lat="46.2026777118" lon="7.4475979060"><ele></ele><time>2014-7-5T0:24:21Z</time></trkpt>
<trkpt lat="46.2028823979" lon="7.4476783723"><ele></ele><time>2014-7-5T0:24:24Z</time></trkpt>
<trkpt lat="46.2030805461" lon="7.4477927852"><ele></ele><time>2014-7-5T0:24:27Z</time></trkpt>
<trkpt lat="46.2032387126" lon="7.4479551427"><ele></ele><time>2014-7-5T0:24:30Z</time></trkpt>
<trkpt lat="46.2034066860" lon="7.4481430650"><ele></ele><time>2014-7-5T0:24:33Z</time></trkpt>
<trkpt lat="46.2035642657" lon="7.4482774269"><ele></ele><time>2014-7-5T0:24:36Z</time></trkpt>
<trkpt lat="46.2035064306" lon="7.4483626708"><ele></ele><time>2014-7-5T0:24:39Z</time></trkpt>
<trkpt lat="46.2032760959" lon="7.4482027441"><ele></ele><time>2014-7-5T0:24:42Z</time></trkpt>
<trkpt lat="46.2030330207" lon="7.4480992276"><ele></ele><time>2014-7-5T0:24:45Z</time></trkpt>
<trkpt lat="46.2027099822" lon="7.4480881635"><ele></ele><time>2014-7-5T0:24:48Z</time></trkpt>
<trkpt lat="46.2024348881" lon="7.4481504411"><ele></ele><time>2014-7-5T0:24:51Z</time></trkpt>
<trkpt lat="46.2023327965" lon="7.4483236950"><ele></ele><time>2014-7-5T0:24:54Z</time></trkpt>
<trkpt lat="46.2021521665" lon="7.4484927580"><ele></ele><time>2014-7-5T0:24:57Z</time></trkpt>
<trkpt lat="46.2019703630" lon="7.4486515112"><ele></ele><time>2014-7-5T0:25:0Z</time></trkpt>
<trkpt lat="46.2018664274" lon="7.4488340691"><ele></ele><time>2014-7-5T0:25:3Z</time></trkpt>
<trkpt lat="46.2017596420" lon="7.4490163755"><ele></ele><time>2014-7-5T0:25:6Z</time></trkpt>
<trkpt lat="46.2015762459" lon="7.4492077343"><ele></ele><time>2014-7-5T0:25:9Z</time></trkpt>
<trkpt lat="46.2014276348" lon="7.4494585209"><ele></ele><time>2014-7-5T0:25:12Z</time></trkpt>
<trkpt lat="46.2013791036" lon="7.4498181045"><ele></ele><time>2014-7-5T0:25:15Z</time></trkpt>
<trkpt lat="46.2013478391" lon="7.4501221161"><ele></ele><time>2014-7-5T0:25:18Z</time></trkpt>
<trkpt lat="46.2011546362" lon="7.4506766628"><ele></ele><time>2014-7-5T0:25:21Z</time></trkpt>
<trkpt lat="46.2009777781" lon="7.4509771541"><ele></ele><time>2014-7-5T0:25:24Z</time></trkpt>
<trkpt lat="46.2008455954" lon="7.4511563592"><ele></ele><time>2014-7-5T0:25:27Z</time></trkpt>
<trkpt lat="46.2007539812" lon="7.4512953311"><ele></ele><time>2014-7-5T0:25:30Z</time></trkpt>
<trkpt lat="46.2005860917" lon="7.4516046233"><ele></ele><time>2014-7-5T0:25:33Z</time></trkpt>
<trkpt lat="46.2004126702" lon="7.4518549070"><ele></ele><time>2014-7-5T0:25:36Z</time></trkpt>
<trkpt lat="46.2003600318" lon="7.4519245606"><ele></ele><time>2014-7-5T0:25:39Z</time></trkpt>
<trkpt lat="46.2002412602" lon="7.4521189369"><ele></ele><time>2014-7-5T0:25:42Z</time></trkpt>
<trkpt lat="46.2000426091" lon="7.4525739066"><ele></ele><time>2014-7-5T0:25:45Z</time></trkpt>
<trkpt lat="46.1999414396" lon="7.4529980309"><ele></ele><time>2014-7-5T0:25:48Z</time></trkpt>
<trkpt lat="46.1999396794" lon="7.4532595463"><ele></ele><time>2014-7-5T0:25:51Z</time></trkpt>
<trkpt lat="46.1999587063" lon="7.4534965865"><ele></ele><time>2014-7-5T0:25:54Z</time></trkpt>
<trkpt lat="46.1999696866" lon="7.4537336268"><ele></ele><time>2014-7-5T0:25:57Z</time></trkpt>
<trkpt lat="46.1999810021" lon="7.4540221319"><ele></ele><time>2014-7-5T0:26:0Z</time></trkpt>
<trkpt lat="46.1999883782" lon="7.4541812204"><ele></ele><time>2014-7-5T0:26:3Z</time></trkpt>
<trkpt lat="46.1999952514" lon="7.4543512054"><ele></ele><time>2014-7-5T0:26:6Z</time></trkpt>
<trkpt lat="46.2000000291" lon="7.4546757527"><ele></ele><time>2014-7-5T0:26:9Z</time></trkpt>
<trkpt lat="46.2000079919" lon="7.4547568895"><ele></ele><time>2014-7-5T0:26:12Z</time></trkpt>
<trkpt lat="46.2000075728" lon="7.4548326619"><ele></ele><time>2014-7-5T0:26:15Z</time></trkpt>
<trkpt lat="46.2000224926" lon="7.4550432153"><ele></ele><time>2014-7-5T0:26:18Z</time></trkpt>
<trkpt lat="46.2000263482" lon="7.4551181495"><ele></ele><time>2014-7-5T0:26:21Z</time></trkpt>
<trkpt lat="46.2000366580" lon="7.4551834445"><ele></ele><time>2014-7-5T0:26:24Z</time></trkpt>
<trkpt lat="46.2000560202" lon="7.4554167129"><ele></ele><time>2014-7-5T0:26:27Z</time></trkpt>
<trkpt lat="46.2000990193" lon="7.4556946568"><ele></ele><time>2014-7-5T0:26:30Z</time></trkpt>
<trkpt lat="46.2001172081" lon="7.4558918830"><ele></ele><time>2014-7-5T0:26:33Z</time></trkpt>
<trkpt lat="46.2001440302" lon="7.4560967367"><ele></ele><time>2014-7-5T0:26:36Z</time></trkpt>
<trkpt lat="46.2001773063" lon="7.4563577492"><ele></ele><time>2014-7-5T0:26:39Z</time></trkpt>
<trkpt lat="46.2002030388" lon="7.4565279018"><ele></ele><time>2014-7-5T0:26:42Z</time></trkpt>
<trkpt lat="46.2002348900" lon="7.4567408860"><ele></ele><time>2014-7-5T0:26:45Z</time></trkpt>
<trkpt lat="46.2002467923" lon="7.4569183309"><ele></ele><time>2014-7-5T0:26:48Z</time></trkpt>
<trkpt lat="46.2002720218" lon="7.4572447222"><ele></ele><time>2014-7-5T0:26:51Z</time></trkpt>
<trkpt lat="46.2003183737" lon="7.4574927427"><ele></ele><time>2014-7-5T0:26:54Z</time></trkpt>
<trkpt lat="46.2003409211" lon="7.4577306211"><ele></ele><time>2014-7-5T0:26:57Z</time></trkpt>
<trkpt lat="46.2003354728" lon="7.4579852633"><ele></ele><time>2014-7-5T0:27:0Z</time></trkpt>
<trkpt lat="46.2003211398" lon="7.4582095630"><ele></ele><time>2014-7-5T0:27:3Z</time></trkpt>
<trkpt lat="46.2003135122" lon="7.4584163446"><ele></ele><time>2014-7-5T0:27:6Z</time></trkpt>
<trkpt lat="46.2002968322" lon="7.4586357828"><ele></ele><time>2014-7-5T0:27:9Z</time></trkpt>
<trkpt lat="46.2002706807" lon="7.4589149840"><ele></ele><time>2014-7-5T0:27:12Z</time></trkpt>
<trkpt lat="46.2002749555" lon="7.4590351805"><ele></ele><time>2014-7-5T0:27:15Z</time></trkpt>
<trkpt lat="46.2002918031" lon="7.4591553770"><ele></ele><time>2014-7-5T0:27:18Z</time></trkpt>
<trkpt lat="46.2003164459" lon="7.4593380187"><ele></ele><time>2014-7-5T0:27:21Z</time></trkpt>
<trkpt lat="46.2003555056" lon="7.4594392721"><ele></ele><time>2014-7-5T0:27:24Z</time></trkpt>
<trkpt lat="46.2003621273" lon="7.4594510905"><ele></ele><time>2014-7-5T0:27:27Z</time></trkpt>
<trkpt lat="46.2003839202" lon="7.4596377555"><ele></ele><time>2014-7-5T0:27:30Z</time></trkpt>
<trkpt lat="46.2003902066" lon="7.4596603867"><ele></ele><time>2014-7-5T0:27:33Z</time></trkpt>
<trkpt lat="46.2003969960" lon="7.4596969318"><ele></ele><time>2014-7-5T0:27:36Z</time></trkpt>
<trkpt lat="46.2004675716" lon="7.4598457944"><ele></ele><time>2014-7-5T0:27:39Z</time></trkpt>
<trkpt lat="46.2004775461" lon="7.4598807469"><ele></ele><time>2014-7-5T0:27:42Z</time></trkpt>
<trkpt lat="46.2005128339" lon="7.4600451998"><ele></ele><time>2014-7-5T0:27:45Z</time></trkpt>
<trkpt lat="46.2005314417" lon="7.4601187091"><ele></ele><time>2014-7-5T0:27:48Z</time></trkpt>
<trkpt lat="46.2005383987" lon="7.4603254907"><ele></ele><time>2014-7-5T0:27:51Z</time></trkpt>
<trkpt lat="46.2005488761" lon="7.4604270793"><ele></ele><time>2014-7-5T0:27:54Z</time></trkpt>
<trkpt lat="46.2005630415" lon="7.4605595972"><ele></ele><time>2014-7-5T0:27:57Z</time></trkpt>
<trkpt lat="46.2005684059" lon="7.4605953041"><ele></ele><time>2014-7-5T0:28:0Z</time></trkpt>
<trkpt lat="46.2006284203" lon="7.4608231243"><ele></ele><time>2014-7-5T0:28:3Z</time></trkpt>
<trkpt lat="46.2006917037" lon="7.4609423149"><ele></ele><time>2014-7-5T0:28:6Z</time></trkpt>
<trkpt lat="46.2007163465" lon="7.4609423149"><ele></ele><time>2014-7-5T0:28:9Z</time></trkpt>
<trkpt lat="46.2007361278" lon="7.4608558137"><ele></ele><time>2014-7-5T0:28:12Z</time></trkpt>
<trkpt lat="46.2007754389" lon="7.4606185220"><ele></ele><time>2014-7-5T0:28:15Z</time></trkpt>
<trkpt lat="46.2008881755" lon="7.4603855889"><ele></ele><time>2014-7-5T0:28:18Z</time></trkpt>
<trkpt lat="46.2009456754" lon="7.4602173641"><ele></ele><time>2014-7-5T0:28:21Z</time></trkpt>
<trkpt lat="46.2009902671" lon="7.4599315412"><ele></ele><time>2014-7-5T0:28:24Z</time></trkpt>
<trkpt lat="46.2010663748" lon="7.4596219137"><ele></ele><time>2014-7-5T0:28:27Z</time></trkpt>
<trkpt lat="46.2011931930" lon="7.4592782557"><ele></ele><time>2014-7-5T0:28:30Z</time></trkpt>
<trkpt lat="46.2013027444" lon="7.4588774331"><ele></ele><time>2014-7-5T0:28:33Z</time></trkpt>
<trkpt lat="46.2013859767" lon="7.4584901053"><ele></ele><time>2014-7-5T0:28:36Z</time></trkpt>
<trkpt lat="46.2015404552" lon="7.4581014365"><ele></ele><time>2014-7-5T0:28:39Z</time></trkpt>
<trkpt lat="46.2016780023" lon="7.4577777274"><ele></ele><time>2014-7-5T0:28:42Z</time></trkpt>
<trkpt lat="46.2016951852" lon="7.4575875420"><ele></ele><time>2014-7-5T0:28:45Z</time></trkpt>
<trkpt lat="46.2017280422" lon="7.4574629869"><ele></ele><time>2014-7-5T0:28:48Z</time></trkpt>
<trkpt lat="46.2017336581" lon="7.4574581254"><ele></ele><time>2014-7-5T0:28:51Z</time></trkpt>
<trkpt lat="46.2017324846" lon="7.4574516714"><ele></ele><time>2014-7-5T0:28:54Z</time></trkpt>
<trkpt lat="46.2017215881" lon="7.4574461393"><ele></ele><time>2014-7-5T0:28:57Z</time></trkpt>
<trkpt lat="46.2017155532" lon="7.4574494921"><ele></ele><time>2014-7-5T0:29:0Z</time></trkpt>
<trkpt lat="46.2017142959" lon="7.4574481510"><ele></ele><time>2014-7-5T0:29:3Z</time></trkpt>
<trkpt lat="46.2017240189" lon="7.4574503303"><ele></ele><time>2014-7-5T0:29:6Z</time></trkpt>
<trkpt lat="46.2017292157" lon="7.4574501626"><ele></ele><time>2014-7-5T0:29:9Z</time></trkpt>
<trkpt lat="46.2017171457" lon="7.4574449658"><ele></ele><time>2014-7-5T0:29:12Z</time></trkpt>
<trkpt lat="46.2017208338" lon="7.4574530125"><ele></ele><time>2014-7-5T0:29:15Z</time></trkpt>
<trkpt lat="46.2017231807" lon="7.4574567843"><ele></ele><time>2014-7-5T0:29:18Z</time></trkpt>
<trkpt lat="46.2017180678" lon="7.4574589636"><ele></ele><time>2014-7-5T0:29:21Z</time></trkpt>
<trkpt lat="46.2017210014" lon="7.4574695248"><ele></ele><time>2014-7-5T0:29:24Z</time></trkpt>
<trkpt lat="46.2017215881" lon="7.4574701115"><ele></ele><time>2014-7-5T0:29:27Z</time></trkpt>
<trkpt lat="46.2017176487" lon="7.4574701954"><ele></ele><time>2014-7-5T0:29:30Z</time></trkpt>
<trkpt lat="46.2017165590" lon="7.4574701115"><ele></ele><time>2014-7-5T0:29:33Z</time></trkpt>
<trkpt lat="46.2017189059" lon="7.4574719556"><ele></ele><time>2014-7-5T0:29:36Z</time></trkpt>
<trkpt lat="46.2017490808" lon="7.4574379250"><ele></ele><time>2014-7-5T0:29:39Z</time></trkpt>
<trkpt lat="46.2017549481" lon="7.4574279506"><ele></ele><time>2014-7-5T0:29:42Z</time></trkpt>
<trkpt lat="46.2017534394" lon="7.4574250169"><ele></ele><time>2014-7-5T0:29:45Z</time></trkpt>
<trkpt lat="46.2017874699" lon="7.4573005456"><ele></ele><time>2014-7-5T0:29:48Z</time></trkpt>
<trkpt lat="46.2017593905" lon="7.4569478352"><ele></ele><time>2014-7-5T0:29:51Z</time></trkpt>
<trkpt lat="46.2016756553" lon="7.4566997308"><ele></ele><time>2014-7-5T0:29:54Z</time></trkpt>
<trkpt lat="46.2014645152" lon="7.4563503731"><ele></ele><time>2014-7-5T0:29:57Z</time></trkpt>
<trkpt lat="46.2013305724" lon="7.4561532307"><ele></ele><time>2014-7-5T0:30:0Z</time></trkpt>
<trkpt lat="46.2012420595" lon="7.4559864309"><ele></ele><time>2014-7-5T0:30:3Z</time></trkpt>
<trkpt lat="46.2011326756" lon="7.4557876959"><ele></ele><time>2014-7-5T0:30:6Z</time></trkpt>
<trkpt lat="46.2011518702" lon="7.4555960018"><ele></ele><time>2014-7-5T0:30:9Z</time></trkpt>
<trkpt lat="46.2011962943" lon="7.4554159585"><ele></ele><time>2014-7-5T0:30:12Z</time></trkpt>
<trkpt lat="46.2012184225" lon="7.4552223366"><ele></ele><time>2014-7-5T0:30:15Z</time></trkpt>
<trkpt lat="46.2012149021" lon="7.4549815245"><ele></ele><time>2014-7-5T0:30:18Z</time></trkpt>
<trkpt lat="46.2011962943" lon="7.4547689594"><ele></ele><time>2014-7-5T0:30:21Z</time></trkpt>
<trkpt lat="46.2012506928" lon="7.4543885048"><ele></ele><time>2014-7-5T0:30:24Z</time></trkpt>
<trkpt lat="46.2012696359" lon="7.4542434141"><ele></ele><time>2014-7-5T0:30:27Z</time></trkpt>
<trkpt lat="46.2013486773" lon="7.4539361335"><ele></ele><time>2014-7-5T0:30:30Z</time></trkpt>
<trkpt lat="46.2013153173" lon="7.4536676612"><ele></ele><time>2014-7-5T0:30:33Z</time></trkpt>
<trkpt lat="46.2012880761" lon="7.4536472093"><ele></ele><time>2014-7-5T0:30:36Z</time></trkpt>
<trkpt lat="46.2012294028" lon="7.4535901286"><ele></ele><time>2014-7-5T0:30:39Z</time></trkpt>
<trkpt lat="46.2012453284" lon="7.4534811638"><ele></ele><time>2014-7-5T0:30:42Z</time></trkpt>
<trkpt lat="46.2012816221" lon="7.4534552637"><ele></ele><time>2014-7-5T0:30:45Z</time></trkpt>
<trkpt lat="46.2013506889" lon="7.4534079898"><ele></ele><time>2014-7-5T0:30:48Z</time></trkpt>
<trkpt lat="46.2013393734" lon="7.4531655014"><ele></ele><time>2014-7-5T0:30:51Z</time></trkpt>
<trkpt lat="46.2013081089" lon="7.4530471489"><ele></ele><time>2014-7-5T0:30:54Z</time></trkpt>
<trkpt lat="46.2011537142" lon="7.4526796024"><ele></ele><time>2014-7-5T0:30:57Z</time></trkpt>
<trkpt lat="46.2011411414" lon="7.4526364356"><ele></ele><time>2014-7-5T0:31:0Z</time></trkpt>
<trkpt lat="46.2010911852" lon="7.4522153288"><ele></ele><time>2014-7-5T0:31:3Z</time></trkpt>
<trkpt lat="46.2010664586" lon="7.4518369697"><ele></ele><time>2014-7-5T0:31:6Z</time></trkpt>
<trkpt lat="46.2009870820" lon="7.4516074732"><ele></ele><time>2014-7-5T0:31:9Z</time></trkpt>
<trkpt lat="46.2010055222" lon="7.4515036214"><ele></ele><time>2014-7-5T0:31:12Z</time></trkpt>
<trkpt lat="46.2009930331" lon="7.4512902182"><ele></ele><time>2014-7-5T0:31:15Z</time></trkpt>
<trkpt lat="46.2009273190" lon="7.4510410242"><ele></ele><time>2014-7-5T0:31:18Z</time></trkpt>
<trkpt lat="46.2009359524" lon="7.4507710431"><ele></ele><time>2014-7-5T0:31:21Z</time></trkpt>
<trkpt lat="46.2010025885" lon="7.4503404647"><ele></ele><time>2014-7-5T0:31:24Z</time></trkpt>
<trkpt lat="46.2010325119" lon="7.4502060190"><ele></ele><time>2014-7-5T0:31:27Z</time></trkpt>
<trkpt lat="46.2010376249" lon="7.4500170909"><ele></ele><time>2014-7-5T0:31:30Z</time></trkpt>
<trkpt lat="46.2010416482" lon="7.4496305175"><ele></ele><time>2014-7-5T0:31:33Z</time></trkpt>
<trkpt lat="46.2010006607" lon="7.4493298586"><ele></ele><time>2014-7-5T0:31:36Z</time></trkpt>
<trkpt lat="46.2009078730" lon="7.4490227457"><ele></ele><time>2014-7-5T0:31:39Z</time></trkpt>
<trkpt lat="46.2009370420" lon="7.4486947618"><ele></ele><time>2014-7-5T0:31:42Z</time></trkpt>
<trkpt lat="46.2009754311" lon="7.4483195040"><ele></ele><time>2014-7-5T0:31:45Z</time></trkpt>
<trkpt lat="46.2009517103" lon="7.4482774269"><ele></ele><time>2014-7-5T0:31:48Z</time></trkpt>
<trkpt lat="46.2009486090" lon="7.4482843839"><ele></ele><time>2014-7-5T0:31:51Z</time></trkpt>
<trkpt lat="46.2008699868" lon="7.4484181590"><ele></ele><time>2014-7-5T0:31:54Z</time></trkpt>
<trkpt lat="46.2008238025" lon="7.4486192409"><ele></ele><time>2014-7-5T0:31:57Z</time></trkpt>
<trkpt lat="46.2005907018" lon="7.4491120968"><ele></ele><time>2014-7-5T0:32:0Z</time></trkpt>
<trkpt lat="46.2002985924" lon="7.4494884443"><ele></ele><time>2014-7-5T0:32:3Z</time></trkpt>
<trkpt lat="46.2002287712" lon="7.4496565852"><ele></ele><time>2014-7-5T0:32:6Z</time></trkpt>
<trkpt lat="46.2000112608" lon="7.4497746862"><ele></ele><time>2014-7-5T0:32:9Z</time></trkpt>
<trkpt lat="46.2000930682" lon="7.4495261628"><ele></ele><time>2014-7-5T0:32:12Z</time></trkpt>
<trkpt lat="46.2002214789" lon="7.4489213247"><ele></ele><time>2014-7-5T0:32:15Z</time></trkpt>
<trkpt lat="46.2001781445" lon="7.4483949412"><ele></ele><time>2014-7-5T0:32:18Z</time></trkpt>
<trkpt lat="46.2001158670" lon="7.4481744133"><ele></ele><time>2014-7-5T0:32:21Z</time></trkpt>
<trkpt lat="46.2000511587" lon="7.4480298255"><ele></ele><time>2014-7-5T0:32:24Z</time></trkpt>
<trkpt lat="46.2000289466" lon="7.4476588424"><ele></ele><time>2014-7-5T0:32:27Z</time></trkpt>
<trkpt lat="46.2001115084" lon="7.4474244006"><ele></ele><time>2014-7-5T0:32:30Z</time></trkpt>
<trkpt lat="46.2003378198" lon="7.4464233499"><ele></ele><time>2014-7-5T0:32:33Z</time></trkpt>
<trkpt lat="46.2003927212" lon="7.4456901848"><ele></ele><time>2014-7-5T0:32:36Z</time></trkpt>
<trkpt lat="46.2006718386" lon="7.4449736997"><ele></ele><time>2014-7-5T0:32:39Z</time></trkpt>
<trkpt lat="46.2009113934" lon="7.4446905591"><ele></ele><time>2014-7-5T0:32:42Z</time></trkpt>
<trkpt lat="46.2010389660" lon="7.4441721383"><ele></ele><time>2014-7-5T0:32:45Z</time></trkpt>
<trkpt lat="46.2010944542" lon="7.4437713996"><ele></ele><time>2014-7-5T0:32:48Z</time></trkpt>
<trkpt lat="46.2014981266" lon="7.4428744521"><ele></ele><time>2014-7-5T0:32:51Z</time></trkpt>
<trkpt lat="46.2015852984" lon="7.4426778127"><ele></ele><time>2014-7-5T0:32:54Z</time></trkpt>
<trkpt lat="46.2019267771" lon="7.4423805065"><ele></ele><time>2014-7-5T0:32:57Z</time></trkpt>
<trkpt lat="46.2022750452" lon="7.4422852881"><ele></ele><time>2014-7-5T0:33:0Z</time></trkpt>
<trkpt lat="46.2023177929" lon="7.4422182329"><ele></ele><time>2014-7-5T0:33:3Z</time></trkpt>
<trkpt lat="46.2023176253" lon="7.4418962840"><ele></ele><time>2014-7-5T0:33:6Z</time></trkpt>
<trkpt lat="46.2022008654" lon="7.4418462440"><ele></ele><time>2014-7-5T0:33:9Z</time></trkpt>
<trkpt lat="46.2018269487" lon="7.4416342657"><ele></ele><time>2014-7-5T0:33:12Z</time></trkpt>
<trkpt lat="46.2017588038" lon="7.4416392110"><ele></ele><time>2014-7-5T0:33:15Z</time></trkpt>
<trkpt lat="46.2015049998" lon="7.4416217767"><ele></ele><time>2014-7-5T0:33:18Z</time></trkpt>
<trkpt lat="46.2013413012" lon="7.4415779393"><ele></ele><time>2014-7-5T0:33:21Z</time></trkpt>
<trkpt lat="46.2007400673" lon="7.4415773526"><ele></ele><time>2014-7-5T0:33:24Z</time></trkpt>
<trkpt lat="46.2006138358" lon="7.4415864050"><ele></ele><time>2014-7-5T0:33:27Z</time></trkpt>
<trkpt lat="46.2004608661" lon="7.4415030051"><ele></ele><time>2014-7-5T0:33:30Z</time></trkpt>
<trkpt lat="46.2006249838" lon="7.4413256440"><ele></ele><time>2014-7-5T0:33:33Z</time></trkpt>
<trkpt lat="46.2007044442" lon="7.4412192777"><ele></ele><time>2014-7-5T0:33:36Z</time></trkpt>
<trkpt lat="46.2008511275" lon="7.4409601931"><ele></ele><time>2014-7-5T0:33:39Z</time></trkpt>
<trkpt lat="46.2009803765" lon="7.4407443590"><ele></ele><time>2014-7-5T0:33:42Z</time></trkpt>
<trkpt lat="46.2010647822" lon="7.4405628070"><ele></ele><time>2014-7-5T0:33:45Z</time></trkpt>
<trkpt lat="46.2012119684" lon="7.4404243380"><ele></ele><time>2014-7-5T0:33:48Z</time></trkpt>
<trkpt lat="46.2012814544" lon="7.4403064046"><ele></ele><time>2014-7-5T0:33:51Z</time></trkpt>
<trkpt lat="46.2011687178" lon="7.4401734676"><ele></ele><time>2014-7-5T0:33:54Z</time></trkpt>
<trkpt lat="46.2010967173" lon="7.4401283730"><ele></ele><time>2014-7-5T0:33:57Z</time></trkpt>
<trkpt lat="46.2011206895" lon="7.4399697036"><ele></ele><time>2014-7-5T0:34:0Z</time></trkpt>
<trkpt lat="46.2011973839" lon="7.4398230202"><ele></ele><time>2014-7-5T0:34:3Z</time></trkpt>
<trkpt lat="46.2011363637" lon="7.4397879839"><ele></ele><time>2014-7-5T0:34:6Z</time></trkpt>
<trkpt lat="46.2009604275" lon="7.4397700466"><ele></ele><time>2014-7-5T0:34:9Z</time></trkpt>
<trkpt lat="46.2009696476" lon="7.4396128859"><ele></ele><time>2014-7-5T0:34:12Z</time></trkpt>
<trkpt lat="46.2011468410" lon="7.4394760933"><ele></ele><time>2014-7-5T0:34:15Z</time></trkpt>
<trkpt lat="46.2010924425" lon="7.4392705690"><ele></ele><time>2014-7-5T0:34:18Z</time></trkpt>
<trkpt lat="46.2009870820" lon="7.4392515421"><ele></ele><time>2014-7-5T0:34:21Z</time></trkpt>
<trkpt lat="46.2008463498" lon="7.4391102232"><ele></ele><time>2014-7-5T0:34:24Z</time></trkpt>
<trkpt lat="46.2009923626" lon="7.4388224725"><ele></ele><time>2014-7-5T0:34:27Z</time></trkpt>
<trkpt lat="46.2010441627" lon="7.4386286829"><ele></ele><time>2014-7-5T0:34:30Z</time></trkpt>
<trkpt lat="46.2010124791" lon="7.4381208234"><ele></ele><time>2014-7-5T0:34:33Z</time></trkpt>
<trkpt lat="46.2009310070" lon="7.4376689550"><ele></ele><time>2014-7-5T0:34:36Z</time></trkpt>
<trkpt lat="46.2008797098" lon="7.4373252969"><ele></ele><time>2014-7-5T0:34:39Z</time></trkpt>
<trkpt lat="46.2007378042" lon="7.4369357899"><ele></ele><time>2014-7-5T0:34:42Z</time></trkpt>
<trkpt lat="46.2004874367" lon="7.4365177844"><ele></ele><time>2014-7-5T0:34:45Z</time></trkpt>
<trkpt lat="46.2002737820" lon="7.4358602241"><ele></ele><time>2014-7-5T0:34:48Z</time></trkpt>
<trkpt lat="46.2001301162" lon="7.4353475031"><ele></ele><time>2014-7-5T0:34:51Z</time></trkpt>
<trkpt lat="46.2001534179" lon="7.4346806388"><ele></ele><time>2014-7-5T0:34:54Z</time></trkpt>
<trkpt lat="46.2001030426" lon="7.4343058001"><ele></ele><time>2014-7-5T0:34:57Z</time></trkpt>
<trkpt lat="46.2002307829" lon="7.4340701010"><ele></ele><time>2014-7-5T0:35:0Z</time></trkpt>
<trkpt lat="46.2003492191" lon="7.4340779800"><ele></ele><time>2014-7-5T0:35:3Z</time></trkpt>
<trkpt lat="46.2008880079" lon="7.4342269264"><ele></ele><time>2014-7-5T0:35:6Z</time></trkpt>
<trkpt lat="46.2012759224" lon="7.4344767909"><ele></ele><time>2014-7-5T0:35:9Z</time></trkpt>
<trkpt lat="46.2014893256" lon="7.4348132405"><ele></ele><time>2014-7-5T0:35:12Z</time></trkpt>
<trkpt lat="46.2016152218" lon="7.4350247160"><ele></ele><time>2014-7-5T0:35:15Z</time></trkpt>
<trkpt lat="46.2017205823" lon="7.4352962896"><ele></ele><time>2014-7-5T0:35:18Z</time></trkpt>
<trkpt lat="46.2018411141" lon="7.4356339127"><ele></ele><time>2014-7-5T0:35:21Z</time></trkpt>
<trkpt lat="46.2019342370" lon="7.4359090067"><ele></ele><time>2014-7-5T0:35:24Z</time></trkpt>
<trkpt lat="46.2020256836" lon="7.4362176284"><ele></ele><time>2014-7-5T0:35:27Z</time></trkpt>
<trkpt lat="46.2021732889" lon="7.4365253281"><ele></ele><time>2014-7-5T0:35:30Z</time></trkpt>
<trkpt lat="46.2023174576" lon="7.4367264099"><ele></ele><time>2014-7-5T0:35:33Z</time></trkpt>
<trkpt lat="46.2024652306" lon="7.4369817227"><ele></ele><time>2014-7-5T0:35:36Z</time></trkpt>
<trkpt lat="46.2026622053" lon="7.4372220319"><ele></ele><time>2014-7-5T0:35:39Z</time></trkpt>
<trkpt lat="46.2028005067" lon="7.4374578986"><ele></ele><time>2014-7-5T0:35:42Z</time></trkpt>
<trkpt lat="46.2029581703" lon="7.4377523549"><ele></ele><time>2014-7-5T0:35:45Z</time></trkpt>
<trkpt lat="46.2031039316" lon="7.4379970226"><ele></ele><time>2014-7-5T0:35:48Z</time></trkpt>
<trkpt lat="46.2032591645" lon="7.4381316360"><ele></ele><time>2014-7-5T0:35:51Z</time></trkpt>
<trkpt lat="46.2034092844" lon="7.4383189715"><ele></ele><time>2014-7-5T0:35:54Z</time></trkpt>
<trkpt lat="46.2035480887" lon="7.4385236576"><ele></ele><time>2014-7-5T0:35:57Z</time></trkpt>
<trkpt lat="46.2036169041" lon="7.4386301916"><ele></ele><time>2014-7-5T0:36:0Z</time></trkpt>
<trkpt lat="46.2036861386" lon="7.4387348816"><ele></ele><time>2014-7-5T0:36:3Z</time></trkpt>
<trkpt lat="46.2038746476" lon="7.4390250631"><ele></ele><time>2014-7-5T0:36:6Z</time></trkpt>
<trkpt lat="46.2040589657" lon="7.4391445052"><ele></ele><time>2014-7-5T0:36:9Z</time></trkpt>
<trkpt lat="46.2042462174" lon="7.4392739218"><ele></ele><time>2014-7-5T0:36:12Z</time></trkpt>
<trkpt lat="46.2044024561" lon="7.4395124707"><ele></ele><time>2014-7-5T0:36:15Z</time></trkpt>
<trkpt lat="46.2046752870" lon="7.4397609942"><ele></ele><time>2014-7-5T0:36:18Z</time></trkpt>
<trkpt lat="46.2052773591" lon="7.4401366711"><ele></ele><time>2014-7-5T0:36:21Z</time></trkpt>
<trkpt lat="46.2055672891" lon="7.4403427821"><ele></ele><time>2014-7-5T0:36:24Z</time></trkpt>
<trkpt lat="46.2057275511" lon="7.4403426982"><ele></ele><time>2014-7-5T0:36:27Z</time></trkpt>
<trkpt lat="46.2057186663" lon="7.4402585439"><ele></ele><time>2014-7-5T0:36:30Z</time></trkpt>
<trkpt lat="46.2056707218" lon="7.4401447177"><ele></ele><time>2014-7-5T0:36:33Z</time></trkpt>
<trkpt lat="46.2056050077" lon="7.4399262015"><ele></ele><time>2014-7-5T0:36:36Z</time></trkpt>
<trkpt lat="46.2055798620" lon="7.4398567155"><ele></ele><time>2014-7-5T0:36:39Z</time></trkpt>
<trkpt lat="46.2057030760" lon="7.4396894965"><ele></ele><time>2014-7-5T0:36:42Z</time></trkpt>
<trkpt lat="46.2057523616" lon="7.4396372773"><ele></ele><time>2014-7-5T0:36:45Z</time></trkpt>
<trkpt lat="46.2059939280" lon="7.4395686295"><ele></ele><time>2014-7-5T0:36:48Z</time></trkpt>
<trkpt lat="46.2062365003" lon="7.4395401310"><ele></ele><time>2014-7-5T0:36:51Z</time></trkpt>
<trkpt lat="46.2065369077" lon="7.4396628421"><ele></ele><time>2014-7-5T0:36:54Z</time></trkpt>
<trkpt lat="46.2066527456" lon="7.4397256225"><ele></ele><time>2014-7-5T0:36:57Z</time></trkpt>
<trkpt lat="46.2066874467" lon="7.4396062642"><ele></ele><time>2014-7-5T0:37:0Z</time></trkpt>
<trkpt lat="46.2066620495" lon="7.4395941943"><ele></ele><time>2014-7-5T0:37:3Z</time></trkpt>
<trkpt lat="46.2066524941" lon="7.4395775143"><ele></ele><time>2014-7-5T0:37:6Z</time></trkpt>
</trkseg></trk></gpx>